sensor_id;sensor_type;location;lat;lon;timestamp;pressure;altitude;pressure_sealevel;temperature;humidity
50702;BME280;36670;50.094;8.496;2023-05-01T00:00:58;100442.50;;;15.07;48.98
50702;BME280;36670;50.094;8.496;2023-05-01T00:03:24;100436.13;;;14.91;49.53
50702;BME280;36670;50.094;8.496;2023-05-01T00:05:49;100437.78;;;14.87;49.94
50702;BME280;36670;50.094;8.496;2023-05-01T00:08:15;100437.47;;;14.78;49.53
50702;BME280;36670;50.094;8.496;2023-05-01T00:10:40;100434.44;;;14.90;49.89
50702;BME280;36670;50.094;8.496;2023-05-01T00:13:05;100430.00;;;14.73;49.56
50702;BME280;36670;50.094;8.496;2023-05-01T00:15:31;100424.16;;;14.80;50.09
50702;BME280;36670;50.094;8.496;2023-05-01T00:17:57;100419.69;;;14.94;50.01
50702;BME280;36670;50.094;8.496;2023-05-01T00:20:26;100422.47;;;15.10;48.94
50702;BME280;36670;50.094;8.496;2023-05-01T00:22:52;100417.19;;;14.88;49.75
50702;BME280;36670;50.094;8.496;2023-05-01T00:25:17;100406.06;;;15.18;48.78
50702;BME280;36670;50.094;8.496;2023-05-01T00:27:42;100411.09;;;14.91;49.25
50702;BME280;36670;50.094;8.496;2023-05-01T00:30:08;100405.78;;;15.20;49.39
50702;BME280;36670;50.094;8.496;2023-05-01T00:32:34;100401.91;;;14.95;49.60
50702;BME280;36670;50.094;8.496;2023-05-01T00:34:59;100406.91;;;14.93;49.63
50702;BME280;36670;50.094;8.496;2023-05-01T00:37:24;100403.03;;;14.68;49.69
50702;BME280;36670;50.094;8.496;2023-05-01T00:39:50;100408.81;;;14.51;50.69
50702;BME280;36670;50.094;8.496;2023-05-01T00:42:15;100395.75;;;14.47;50.55
50702;BME280;36670;50.094;8.496;2023-05-01T00:44:40;100403.53;;;14.50;50.38
50702;BME280;36670;50.094;8.496;2023-05-01T00:47:06;100401.34;;;14.57;50.60
50702;BME280;36670;50.094;8.496;2023-05-01T00:49:31;100394.41;;;14.65;49.56
50702;BME280;36670;50.094;8.496;2023-05-01T00:51:57;100396.06;;;14.61;50.50
50702;BME280;36670;50.094;8.496;2023-05-01T00:54:24;100395.22;;;14.60;50.71
50702;BME280;36670;50.094;8.496;2023-05-01T00:56:51;100392.16;;;14.46;50.55
50702;BME280;36670;50.094;8.496;2023-05-01T00:59:16;100387.16;;;14.48;50.72
50702;BME280;36670;50.094;8.496;2023-05-01T01:01:42;100375.50;;;14.62;50.23
50702;BME280;36670;50.094;8.496;2023-05-01T01:04:07;100369.69;;;14.63;49.83
50702;BME280;36670;50.094;8.496;2023-05-01T01:06:46;100377.47;;;14.77;49.51
50702;BME280;36670;50.094;8.496;2023-05-01T01:13:11;100371.03;;;14.45;49.94
50702;BME280;36670;50.094;8.496;2023-05-01T01:15:27;100373.28;;;14.54;50.47
50702;BME280;36670;50.094;8.496;2023-05-01T01:18:10;100363.53;;;14.51;50.08
50702;BME280;36670;50.094;8.496;2023-05-01T01:20:54;100364.66;;;14.55;49.87
50702;BME280;36670;50.094;8.496;2023-05-01T01:31:20;100354.09;;;14.78;49.36
50702;BME280;36670;50.094;8.496;2023-05-01T01:34:08;100351.31;;;14.37;50.48
50702;BME280;36670;50.094;8.496;2023-05-01T01:39:26;100343.53;;;14.13;51.20
50702;BME280;36670;50.094;8.496;2023-05-01T01:41:53;100341.88;;;14.27;50.27
50702;BME280;36670;50.094;8.496;2023-05-01T01:44:33;100334.34;;;14.07;50.71
50702;BME280;36670;50.094;8.496;2023-05-01T01:47:04;100338.56;;;14.41;50.58
50702;BME280;36670;50.094;8.496;2023-05-01T01:49:31;100334.09;;;14.45;50.12
50702;BME280;36670;50.094;8.496;2023-05-01T01:52:00;100330.75;;;14.43;49.94
50702;BME280;36670;50.094;8.496;2023-05-01T01:54:30;100342.13;;;14.21;50.23
50702;BME280;36670;50.094;8.496;2023-05-01T01:56:58;100341.81;;;13.91;51.64
50702;BME280;36670;50.094;8.496;2023-05-01T01:59:29;100342.66;;;13.92;51.79
50702;BME280;36670;50.094;8.496;2023-05-01T02:01:57;100324.59;;;13.94;51.26
50702;BME280;36670;50.094;8.496;2023-05-01T02:04:24;100333.81;;;14.15;50.37
50702;BME280;36670;50.094;8.496;2023-05-01T02:06:52;100335.47;;;14.16;50.97
50702;BME280;36670;50.094;8.496;2023-05-01T02:09:20;100329.91;;;14.16;50.19
50702;BME280;36670;50.094;8.496;2023-05-01T02:11:48;100319.09;;;14.10;50.35
50702;BME280;36670;50.094;8.496;2023-05-01T02:14:14;100324.09;;;14.23;50.48
50702;BME280;36670;50.094;8.496;2023-05-01T02:16:40;100327.97;;;14.27;50.54
50702;BME280;36670;50.094;8.496;2023-05-01T02:19:06;100328.81;;;14.28;50.57
50702;BME280;36670;50.094;8.496;2023-05-01T02:21:34;100323.25;;;14.12;50.22
50702;BME280;36670;50.094;8.496;2023-05-01T02:24:01;100323.28;;;14.23;50.31
50702;BME280;36670;50.094;8.496;2023-05-01T02:26:28;100323.53;;;14.06;49.99
50702;BME280;36670;50.094;8.496;2023-05-01T02:28:53;100324.91;;;14.08;50.81
50702;BME280;36670;50.094;8.496;2023-05-01T02:31:19;100314.34;;;14.05;50.38
50702;BME280;36670;50.094;8.496;2023-05-01T02:33:45;100321.28;;;13.92;50.96
50702;BME280;36670;50.094;8.496;2023-05-01T02:36:10;100328.47;;;13.83;51.22
50702;BME280;36670;50.094;8.496;2023-05-01T02:38:37;100322.94;;;13.93;50.86
50702;BME280;36670;50.094;8.496;2023-05-01T02:41:03;100337.91;;;13.77;51.16
50702;BME280;36670;50.094;8.496;2023-05-01T02:43:30;100316.53;;;13.82;50.94
50702;BME280;36670;50.094;8.496;2023-05-01T02:45:58;100308.72;;;13.59;51.17
50702;BME280;36670;50.094;8.496;2023-05-01T02:48:26;100313.44;;;13.63;51.12
50702;BME280;36670;50.094;8.496;2023-05-01T02:50:53;100308.63;;;13.38;51.37
50702;BME280;36670;50.094;8.496;2023-05-01T02:53:21;100307.53;;;13.39;51.93
50702;BME280;36670;50.094;8.496;2023-05-01T02:55:47;100303.56;;;13.30;51.71
50702;BME280;36670;50.094;8.496;2023-05-01T02:58:18;100297.56;;;13.48;51.13
50702;BME280;36670;50.094;8.496;2023-05-01T03:00:44;100300.78;;;13.25;51.71
50702;BME280;36670;50.094;8.496;2023-05-01T03:03:11;100301.34;;;13.27;52.12
50702;BME280;36670;50.094;8.496;2023-05-01T03:05:37;100303.94;;;12.91;52.87
50702;BME280;36670;50.094;8.496;2023-05-01T03:08:03;100300.38;;;13.01;52.13
50702;BME280;36670;50.094;8.496;2023-05-01T03:10:28;100299.13;;;13.29;52.36
50702;BME280;36670;50.094;8.496;2023-05-01T03:12:53;100300.25;;;13.28;52.46
50702;BME280;36670;50.094;8.496;2023-05-01T03:15:19;100306.63;;;13.28;52.14
50702;BME280;36670;50.094;8.496;2023-05-01T03:17:44;100302.28;;;13.48;51.38
50702;BME280;36670;50.094;8.496;2023-05-01T03:20:10;100294.63;;;13.81;51.40
50702;BME280;36670;50.094;8.496;2023-05-01T03:22:35;100290.75;;;14.03;50.12
50702;BME280;36670;50.094;8.496;2023-05-01T03:25:01;100299.91;;;13.98;50.13
50702;BME280;36670;50.094;8.496;2023-05-01T03:27:28;100292.31;;;13.42;51.11
50702;BME280;36670;50.094;8.496;2023-05-01T03:29:54;100286.94;;;13.30;51.91
50702;BME280;36670;50.094;8.496;2023-05-01T03:32:20;100288.66;;;13.41;51.31
50702;BME280;36670;50.094;8.496;2023-05-01T03:34:46;100288.16;;;13.44;50.96
50702;BME280;36670;50.094;8.496;2023-05-01T03:37:11;100287.38;;;13.64;51.62
50702;BME280;36670;50.094;8.496;2023-05-01T03:39:37;100283.19;;;13.72;50.86
50702;BME280;36670;50.094;8.496;2023-05-01T03:42:02;100293.59;;;13.29;51.63
50702;BME280;36670;50.094;8.496;2023-05-01T03:44:27;100292.75;;;13.28;52.15
50702;BME280;36670;50.094;8.496;2023-05-01T03:46:53;100287.81;;;13.36;51.99
50702;BME280;36670;50.094;8.496;2023-05-01T03:49:18;100276.81;;;13.56;51.74
50702;BME280;36670;50.094;8.496;2023-05-01T03:51:43;100279.53;;;13.41;52.13
50702;BME280;36670;50.094;8.496;2023-05-01T03:54:08;100282.66;;;13.60;51.24
50702;BME280;36670;50.094;8.496;2023-05-01T03:56:34;100277.44;;;13.10;52.85
50702;BME280;36670;50.094;8.496;2023-05-01T03:59:00;100279.53;;;12.88;52.80
50702;BME280;36670;50.094;8.496;2023-05-01T04:01:26;100280.59;;;12.76;53.18
50702;BME280;36670;50.094;8.496;2023-05-01T04:03:51;100273.34;;;13.28;52.08
50702;BME280;36670;50.094;8.496;2023-05-01T04:06:17;100276.09;;;13.18;53.17
50702;BME280;36670;50.094;8.496;2023-05-01T04:08:42;100281.47;;;12.87;53.93
50702;BME280;36670;50.094;8.496;2023-05-01T04:11:08;100271.00;;;12.94;53.72
50702;BME280;36670;50.094;8.496;2023-05-01T04:13:34;100282.72;;;13.17;53.45
50702;BME280;36670;50.094;8.496;2023-05-01T04:15:59;100278.19;;;12.95;53.91
50702;BME280;36670;50.094;8.496;2023-05-01T04:18:25;100290.50;;;12.67;54.01
50702;BME280;36670;50.094;8.496;2023-05-01T04:20:50;100285.28;;;12.76;54.19
50702;BME280;36670;50.094;8.496;2023-05-01T04:23:16;100291.38;;;12.73;54.65
50702;BME280;36670;50.094;8.496;2023-05-01T04:25:41;100282.16;;;13.15;53.41
50702;BME280;36670;50.094;8.496;2023-05-01T04:28:09;100273.22;;;12.97;53.23
50702;BME280;36670;50.094;8.496;2023-05-01T04:30:35;100286.41;;;12.80;54.26
50702;BME280;36670;50.094;8.496;2023-05-01T04:33:01;100290.19;;;12.63;55.29
50702;BME280;36670;50.094;8.496;2023-05-01T04:35:26;100281.00;;;12.53;55.14
50702;BME280;36670;50.094;8.496;2023-05-01T04:37:51;100279.03;;;12.53;55.65
50702;BME280;36670;50.094;8.496;2023-05-01T04:40:16;100290.50;;;12.67;55.77
50702;BME280;36670;50.094;8.496;2023-05-01T04:42:42;100288.06;;;12.76;55.77
50702;BME280;36670;50.094;8.496;2023-05-01T04:45:08;100290.31;;;12.41;56.32
50702;BME280;36670;50.094;8.496;2023-05-01T04:47:33;100290.19;;;12.26;56.89
50702;BME280;36670;50.094;8.496;2023-05-01T04:49:58;100288.94;;;12.39;55.91
50702;BME280;36670;50.094;8.496;2023-05-01T04:52:24;100289.81;;;12.50;55.91
50702;BME280;36670;50.094;8.496;2023-05-01T04:54:49;100290.03;;;12.80;55.44
50702;BME280;36670;50.094;8.496;2023-05-01T04:57:15;100291.06;;;12.69;55.94
50702;BME280;36670;50.094;8.496;2023-05-01T04:59:40;100299.91;;;12.66;56.14
50702;BME280;36670;50.094;8.496;2023-05-01T05:02:05;100291.94;;;12.75;55.56
50702;BME280;36670;50.094;8.496;2023-05-01T05:04:31;100291.59;;;12.66;55.67
50702;BME280;36670;50.094;8.496;2023-05-01T05:06:57;100284.91;;;13.05;54.78
50702;BME280;36670;50.094;8.496;2023-05-01T05:09:22;100288.03;;;12.71;56.26
50702;BME280;36670;50.094;8.496;2023-05-01T05:11:47;100284.78;;;12.79;55.93
50702;BME280;36670;50.094;8.496;2023-05-01T05:14:13;100290.28;;;12.74;56.36
50702;BME280;36670;50.094;8.496;2023-05-01T05:16:38;100288.50;;;12.57;56.34
50702;BME280;36670;50.094;8.496;2023-05-01T05:19:03;100289.09;;;12.64;56.57
50702;BME280;36670;50.094;8.496;2023-05-01T05:21:28;100283.19;;;12.93;55.56
50702;BME280;36670;50.094;8.496;2023-05-01T05:23:54;100292.03;;;12.90;55.58
50702;BME280;36670;50.094;8.496;2023-05-01T05:26:20;100285.81;;;13.26;54.98
50702;BME280;36670;50.094;8.496;2023-05-01T05:28:45;100290.91;;;13.39;54.34
50702;BME280;36670;50.094;8.496;2023-05-01T05:31:11;100286.59;;;13.16;55.17
50702;BME280;36670;50.094;8.496;2023-05-01T05:33:37;100286.19;;;13.40;55.09
50702;BME280;36670;50.094;8.496;2023-05-01T05:36:02;100275.69;;;13.62;54.04
50702;BME280;36670;50.094;8.496;2023-05-01T05:38:28;100269.09;;;13.99;53.02
50702;BME280;36670;50.094;8.496;2023-05-01T05:40:53;100283.81;;;14.57;52.51
50702;BME280;36670;50.094;8.496;2023-05-01T05:43:19;100273.53;;;14.52;52.67
50702;BME280;36670;50.094;8.496;2023-05-01T05:45:44;100278.25;;;14.36;52.79
50702;BME280;36670;50.094;8.496;2023-05-01T05:48:09;100265.78;;;14.28;52.29
50702;BME280;36670;50.094;8.496;2023-05-01T05:50:35;100267.97;;;14.57;52.86
50702;BME280;36670;50.094;8.496;2023-05-01T05:53:00;100268.47;;;14.95;52.08
50702;BME280;36670;50.094;8.496;2023-05-01T05:55:25;100272.31;;;15.10;51.13
50702;BME280;36670;50.094;8.496;2023-05-01T05:57:52;100261.88;;;15.41;50.58
50702;BME280;36670;50.094;8.496;2023-05-01T06:00:17;100265.47;;;15.52;50.00
50702;BME280;36670;50.094;8.496;2023-05-01T06:02:43;100257.91;;;15.58;49.11
50702;BME280;36670;50.094;8.496;2023-05-01T06:05:08;100262.03;;;15.65;48.51
50702;BME280;36670;50.094;8.496;2023-05-01T06:07:35;100263.56;;;15.42;49.41
50702;BME280;36670;50.094;8.496;2023-05-01T06:10:00;100265.47;;;15.52;49.39
50702;BME280;36670;50.094;8.496;2023-05-01T06:12:32;100264.06;;;15.49;49.00
50702;BME280;36670;50.094;8.496;2023-05-01T06:14:57;100271.53;;;16.04;47.75
50702;BME280;36670;50.094;8.496;2023-05-01T06:17:23;100267.50;;;16.20;46.96
50702;BME280;36670;50.094;8.496;2023-05-01T06:19:49;100255.69;;;17.17;45.90
50702;BME280;36670;50.094;8.496;2023-05-01T06:22:16;100251.44;;;17.82;43.36
50702;BME280;36670;50.094;8.496;2023-05-01T06:24:42;100250.22;;;18.26;42.68
50702;BME280;36670;50.094;8.496;2023-05-01T06:27:07;100236.16;;;18.45;42.04
50702;BME280;36670;50.094;8.496;2023-05-01T06:29:32;100245.53;;;18.21;41.13
50702;BME280;36670;50.094;8.496;2023-05-01T06:31:57;100244.47;;;18.17;42.11
50702;BME280;36670;50.094;8.496;2023-05-01T06:34:23;100244.13;;;18.38;40.72
50702;BME280;36670;50.094;8.496;2023-05-01T06:36:48;100244.50;;;17.60;41.48
50702;BME280;36670;50.094;8.496;2023-05-01T06:39:13;100248.09;;;16.98;42.37
50702;BME280;36670;50.094;8.496;2023-05-01T06:41:39;100248.16;;;16.34;44.11
50702;BME280;36670;50.094;8.496;2023-05-01T06:44:04;100249.69;;;16.21;43.66
50702;BME280;36670;50.094;8.496;2023-05-01T06:46:29;100243.25;;;16.21;44.29
50702;BME280;36670;50.094;8.496;2023-05-01T06:48:54;100247.72;;;16.22;43.90
50702;BME280;36670;50.094;8.496;2023-05-01T06:51:20;100254.50;;;16.11;44.82
50702;BME280;36670;50.094;8.496;2023-05-01T06:53:45;100243.88;;;16.13;43.62
50702;BME280;36670;50.094;8.496;2023-05-01T06:56:10;100242.63;;;16.29;44.36
50702;BME280;36670;50.094;8.496;2023-05-01T06:58:35;100239.22;;;16.37;43.78
50702;BME280;36670;50.094;8.496;2023-05-01T07:01:01;100243.28;;;16.50;43.73
50702;BME280;36670;50.094;8.496;2023-05-01T07:03:26;100241.56;;;16.54;43.43
50702;BME280;36670;50.094;8.496;2023-05-01T07:05:53;100241.06;;;16.47;44.14
50702;BME280;36670;50.094;8.496;2023-05-01T07:08:18;100243.72;;;16.33;43.97
50702;BME280;36670;50.094;8.496;2023-05-01T07:10:43;100247.19;;;16.79;43.23
50702;BME280;36670;50.094;8.496;2023-05-01T07:13:09;100240.06;;;16.67;43.61
50702;BME280;36670;50.094;8.496;2023-05-01T07:15:34;100243.63;;;16.44;43.40
50702;BME280;36670;50.094;8.496;2023-05-01T07:17:59;100238.28;;;16.47;43.39
50702;BME280;36670;50.094;8.496;2023-05-01T07:20:26;100225.25;;;16.96;42.78
50702;BME280;36670;50.094;8.496;2023-05-01T07:22:52;100238.81;;;17.27;42.15
50702;BME280;36670;50.094;8.496;2023-05-01T07:25:17;100231.81;;;17.49;40.83
50702;BME280;36670;50.094;8.496;2023-05-01T07:27:42;100218.50;;;17.02;41.99
50702;BME280;36670;50.094;8.496;2023-05-01T07:30:08;100226.41;;;17.14;41.66
50702;BME280;36670;50.094;8.496;2023-05-01T07:32:33;100218.50;;;17.21;41.44
50702;BME280;36670;50.094;8.496;2023-05-01T07:34:59;100229.75;;;17.16;41.31
50702;BME280;36670;50.094;8.496;2023-05-01T07:37:24;100224.38;;;17.20;40.65
50702;BME280;36670;50.094;8.496;2023-05-01T07:39:51;100218.03;;;17.38;40.79
50702;BME280;36670;50.094;8.496;2023-05-01T07:42:16;100220.63;;;17.11;41.58
50702;BME280;36670;50.094;8.496;2023-05-01T07:44:42;100215.91;;;17.68;40.45
50702;BME280;36670;50.094;8.496;2023-05-01T07:47:07;100215.16;;;17.63;40.42
50702;BME280;36670;50.094;8.496;2023-05-01T07:49:36;100218.91;;;17.91;40.33
50702;BME280;36670;50.094;8.496;2023-05-01T07:52:02;100214.78;;;17.69;40.15
50702;BME280;36670;50.094;8.496;2023-05-01T07:54:28;100216.66;;;17.36;41.26
50702;BME280;36670;50.094;8.496;2023-05-01T07:56:53;100215.34;;;18.04;40.87
50702;BME280;36670;50.094;8.496;2023-05-01T07:59:18;100217.31;;;18.51;39.91
50702;BME280;36670;50.094;8.496;2023-05-01T08:01:43;100218.47;;;18.50;39.06
50702;BME280;36670;50.094;8.496;2023-05-01T08:04:09;100206.69;;;17.68;40.34
50702;BME280;36670;50.094;8.496;2023-05-01T08:06:34;100217.56;;;17.88;40.03
50702;BME280;36670;50.094;8.496;2023-05-01T08:09:00;100210.03;;;18.22;40.53
50702;BME280;36670;50.094;8.496;2023-05-01T08:11:25;100217.59;;;18.35;40.07
50702;BME280;36670;50.094;8.496;2023-05-01T08:13:51;100228.66;;;18.59;39.40
50702;BME280;36670;50.094;8.496;2023-05-01T08:16:16;100217.59;;;18.35;39.78
50702;BME280;36670;50.094;8.496;2023-05-01T08:18:44;100217.72;;;18.30;39.73
50702;BME280;36670;50.094;8.496;2023-05-01T08:21:10;100218.88;;;18.43;39.63
50702;BME280;36670;50.094;8.496;2023-05-01T08:23:35;100214.19;;;18.38;40.00
50702;BME280;36670;50.094;8.496;2023-05-01T08:26:00;100219.63;;;18.49;39.10
50702;BME280;36670;50.094;8.496;2023-05-01T08:28:26;100217.84;;;18.39;39.04
50702;BME280;36670;50.094;8.496;2023-05-01T08:30:51;100214.22;;;18.52;39.14
50702;BME280;36670;50.094;8.496;2023-05-01T08:33:16;100205.16;;;18.14;39.75
50702;BME280;36670;50.094;8.496;2023-05-01T08:35:42;100207.91;;;18.00;40.31
50702;BME280;36670;50.094;8.496;2023-05-01T08:38:07;100206.63;;;17.92;40.09
50702;BME280;36670;50.094;8.496;2023-05-01T08:40:35;100201.69;;;18.03;40.46
50702;BME280;36670;50.094;8.496;2023-05-01T08:43:02;100194.81;;;18.28;40.22
50702;BME280;36670;50.094;8.496;2023-05-01T08:45:32;100208.88;;;17.90;40.77
50702;BME280;36670;50.094;8.496;2023-05-01T08:48:03;100202.09;;;18.29;40.00
50702;BME280;36670;50.094;8.496;2023-05-01T08:50:29;100201.34;;;18.23;40.03
50702;BME280;36670;50.094;8.496;2023-05-01T08:52:56;100204.72;;;18.06;40.73
50702;BME280;36670;50.094;8.496;2023-05-01T08:55:24;100198.06;;;17.83;40.91
50702;BME280;36670;50.094;8.496;2023-05-01T08:57:50;100189.81;;;18.11;40.23
50702;BME280;36670;50.094;8.496;2023-05-01T09:00:18;100200.63;;;17.80;40.95
50702;BME280;36670;50.094;8.496;2023-05-01T09:02:46;100195.88;;;17.99;41.05
50702;BME280;36670;50.094;8.496;2023-05-01T09:05:14;100196.69;;;18.33;41.07
50702;BME280;36670;50.094;8.496;2023-05-01T09:07:40;100197.13;;;17.93;41.07
50702;BME280;36670;50.094;8.496;2023-05-01T09:10:06;100190.44;;;18.08;40.98
50702;BME280;36670;50.094;8.496;2023-05-01T09:12:32;100186.91;;;18.02;40.50
50702;BME280;36670;50.094;8.496;2023-05-01T09:15:01;100191.53;;;18.26;41.50
50702;BME280;36670;50.094;8.496;2023-05-01T09:17:27;100196.38;;;18.34;40.84
50702;BME280;36670;50.094;8.496;2023-05-01T09:19:56;100196.66;;;18.19;40.85
50702;BME280;36670;50.094;8.496;2023-05-01T09:22:21;100187.63;;;18.69;41.15
50702;BME280;36670;50.094;8.496;2023-05-01T09:24:47;100182.16;;;19.05;40.16
50702;BME280;36670;50.094;8.496;2023-05-01T09:27:13;100182.41;;;19.82;39.08
50702;BME280;36670;50.094;8.496;2023-05-01T09:29:40;100183.59;;;20.12;39.33
50702;BME280;36670;50.094;8.496;2023-05-01T09:32:18;100174.19;;;20.08;38.05
50702;BME280;36670;50.094;8.496;2023-05-01T09:34:47;100176.38;;;20.20;38.36
50702;BME280;36670;50.094;8.496;2023-05-01T09:37:28;100168.50;;;21.03;37.22
50702;BME280;36670;50.094;8.496;2023-05-01T09:40:10;100180.00;;;20.21;37.16
50702;BME280;36670;50.094;8.496;2023-05-01T09:42:40;100172.63;;;20.02;37.74
50702;BME280;36670;50.094;8.496;2023-05-01T09:45:15;100165.34;;;20.55;36.65
50702;BME280;36670;50.094;8.496;2023-05-01T09:47:41;100160.22;;;20.17;37.93
50702;BME280;36670;50.094;8.496;2023-05-01T09:50:08;100165.41;;;20.64;37.63
50702;BME280;36670;50.094;8.496;2023-05-01T09:52:33;100171.00;;;20.33;37.31
50702;BME280;36670;50.094;8.496;2023-05-01T09:55:15;100170.16;;;20.01;37.63
50702;BME280;36670;50.094;8.496;2023-05-01T09:57:42;100166.63;;;20.18;37.82
50702;BME280;36670;50.094;8.496;2023-05-01T10:00:13;100159.41;;;20.57;36.53
50702;BME280;36670;50.094;8.496;2023-05-01T10:02:41;100163.28;;;19.84;37.16
50702;BME280;36670;50.094;8.496;2023-05-01T10:05:08;100161.84;;;20.50;36.93
50702;BME280;36670;50.094;8.496;2023-05-01T10:07:33;100147.75;;;21.39;36.27
50702;BME280;36670;50.094;8.496;2023-05-01T10:10:17;100159.88;;;20.90;36.49
50702;BME280;36670;50.094;8.496;2023-05-01T10:12:42;100155.13;;;21.00;36.46
50702;BME280;36670;50.094;8.496;2023-05-01T10:15:08;100154.72;;;20.75;36.53
50702;BME280;36670;50.094;8.496;2023-05-01T10:17:35;100146.59;;;21.48;36.42
50702;BME280;36670;50.094;8.496;2023-05-01T10:20:00;100148.28;;;21.58;35.69
50702;BME280;36670;50.094;8.496;2023-05-01T10:22:25;100146.09;;;21.99;36.01
50702;BME280;36670;50.094;8.496;2023-05-01T10:24:50;100146.59;;;21.31;36.15
50702;BME280;36670;50.094;8.496;2023-05-01T10:27:17;100141.44;;;22.03;37.04
50702;BME280;36670;50.094;8.496;2023-05-01T10:29:44;100142.56;;;22.67;35.84
50702;BME280;36670;50.094;8.496;2023-05-01T10:32:11;100145.47;;;22.88;35.59
50702;BME280;36670;50.094;8.496;2023-05-01T10:34:47;100140.59;;;23.27;34.90
50702;BME280;36670;50.094;8.496;2023-05-01T10:37:19;100146.22;;;23.48;33.73
50702;BME280;36670;50.094;8.496;2023-05-01T10:39:46;100137.63;;;23.24;34.39
50702;BME280;36670;50.094;8.496;2023-05-01T10:42:12;100137.72;;;23.06;34.68
50702;BME280;36670;50.094;8.496;2023-05-01T10:44:41;100125.81;;;23.85;33.94
50702;BME280;36670;50.094;8.496;2023-05-01T10:50:10;100132.25;;;23.52;34.01
50702;BME280;36670;50.094;8.496;2023-05-01T10:55:33;100128.53;;;24.15;34.44
50702;BME280;36670;50.094;8.496;2023-05-01T10:57:59;100126.59;;;24.52;33.60
50702;BME280;36670;50.094;8.496;2023-05-01T11:00:24;100129.44;;;24.90;33.03
50702;BME280;36670;50.094;8.496;2023-05-01T11:02:50;100122.56;;;24.29;33.01
50702;BME280;36670;50.094;8.496;2023-05-01T11:05:15;100123.03;;;24.31;33.35
50702;BME280;36670;50.094;8.496;2023-05-01T11:07:40;100119.50;;;24.34;32.63
50702;BME280;36670;50.094;8.496;2023-05-01T11:10:24;100111.78;;;24.43;32.77
50702;BME280;36670;50.094;8.496;2023-05-01T11:12:51;100112.25;;;24.95;33.00
50702;BME280;36670;50.094;8.496;2023-05-01T11:17:51;100107.03;;;25.09;32.59
50702;BME280;36670;50.094;8.496;2023-05-01T11:20:46;100114.59;;;25.05;31.90
50702;BME280;36670;50.094;8.496;2023-05-01T11:23:16;100107.56;;;24.74;32.51
50702;BME280;36670;50.094;8.496;2023-05-01T11:25:41;100110.97;;;24.67;33.00
50702;BME280;36670;50.094;8.496;2023-05-01T11:28:06;100096.91;;;25.33;31.83
50702;BME280;36670;50.094;8.496;2023-05-01T11:30:40;100091.41;;;25.52;30.84
50702;BME280;36670;50.094;8.496;2023-05-01T11:33:06;100092.28;;;24.63;31.71
50702;BME280;36670;50.094;8.496;2023-05-01T11:35:31;100095.06;;;24.50;32.06
50702;BME280;36670;50.094;8.496;2023-05-01T11:37:56;100096.72;;;24.51;32.66
50702;BME280;36670;50.094;8.496;2023-05-01T11:40:26;100081.94;;;24.79;31.91
50702;BME280;36670;50.094;8.496;2023-05-01T11:43:05;100078.88;;;24.72;31.80
50702;BME280;36670;50.094;8.496;2023-05-01T11:45:31;100074.94;;;25.14;31.25
50702;BME280;36670;50.094;8.496;2023-05-01T11:47:58;100064.03;;;25.41;31.27
50702;BME280;36670;50.094;8.496;2023-05-01T11:50:31;100070.38;;;25.50;30.17
50702;BME280;36670;50.094;8.496;2023-05-01T11:52:56;100057.88;;;24.98;30.51
50702;BME280;36670;50.094;8.496;2023-05-01T11:55:30;100072.50;;;24.87;30.52
50702;BME280;36670;50.094;8.496;2023-05-01T11:57:56;100062.97;;;25.33;29.68
50702;BME280;36670;50.094;8.496;2023-05-01T12:00:32;100060.81;;;25.14;29.90
50702;BME280;36670;50.094;8.496;2023-05-01T12:03:09;100060.28;;;25.36;30.39
50702;BME280;36670;50.094;8.496;2023-05-01T12:05:39;100064.00;;;25.69;30.96
50702;BME280;36670;50.094;8.496;2023-05-01T12:08:18;100069.59;;;25.65;30.80
50702;BME280;36670;50.094;8.496;2023-05-01T12:10:49;100065.84;;;25.77;29.81
50702;BME280;36670;50.094;8.496;2023-05-01T12:13:15;100059.13;;;25.82;29.70
50702;BME280;36670;50.094;8.496;2023-05-01T12:15:43;100060.78;;;25.99;30.36
50702;BME280;36670;50.094;8.496;2023-05-01T12:18:10;100055.88;;;25.96;29.89
50702;BME280;36670;50.094;8.496;2023-05-01T12:20:46;100061.31;;;25.88;30.03
50702;BME280;36670;50.094;8.496;2023-05-01T12:23:13;100053.91;;;25.68;30.21
50702;BME280;36670;50.094;8.496;2023-05-01T12:25:40;100056.56;;;25.93;29.36
50702;BME280;36670;50.094;8.496;2023-05-01T12:28:16;100046.78;;;26.18;29.00
50702;BME280;36670;50.094;8.496;2023-05-01T12:30:45;100050.59;;;26.42;29.05
50702;BME280;36670;50.094;8.496;2023-05-01T12:33:13;100049.75;;;26.41;28.89
50702;BME280;36670;50.094;8.496;2023-05-01T12:35:40;100052.97;;;26.08;28.76
50702;BME280;36670;50.094;8.496;2023-05-01T12:38:10;100051.41;;;26.11;28.55
50702;BME280;36670;50.094;8.496;2023-05-01T12:40:38;100052.88;;;26.04;28.45
50702;BME280;36670;50.094;8.496;2023-05-01T12:43:03;100059.44;;;26.24;27.55
50702;BME280;36670;50.094;8.496;2023-05-01T12:45:29;100053.69;;;26.05;28.09
50702;BME280;36670;50.094;8.496;2023-05-01T12:47:54;100055.25;;;26.18;27.36
50702;BME280;36670;50.094;8.496;2023-05-01T12:50:19;100051.28;;;25.91;27.87
50702;BME280;36670;50.094;8.496;2023-05-01T12:52:45;100058.09;;;25.74;27.26
50702;BME280;36670;50.094;8.496;2023-05-01T12:55:11;100044.03;;;25.62;27.37
50702;BME280;36670;50.094;8.496;2023-05-01T12:57:50;100045.81;;;25.82;26.87
50702;BME280;36670;50.094;8.496;2023-05-01T13:00:16;100046.34;;;25.88;27.20
50702;BME280;36670;50.094;8.496;2023-05-01T13:02:41;100051.69;;;25.61;28.33
50702;BME280;36670;50.094;8.496;2023-05-01T13:05:09;100050.66;;;25.53;27.54
50702;BME280;36670;50.094;8.496;2023-05-01T13:07:36;100048.19;;;25.52;27.71
50702;BME280;36670;50.094;8.496;2023-05-01T13:10:02;100049.09;;;25.28;27.77
50702;BME280;36670;50.094;8.496;2023-05-01T13:12:30;100041.63;;;25.07;27.97